Time;durP1;ratioP1;P1;durP2;ratioP2;P2;SDS_P1;SDS_P2;PMS_P1;PMS_P2;Temp;Humidity;BMP_temperature;BMP_pressure;BME280_temperature;BME280_humidity;BME280_pressure;Samples;Min_cycle;Max_cycle;Signal;HPM_P1;HPM_P2
2021/06/28 00:00:31;;;;;;;13.37;10.67;;;;;;;;;;5092714;28;20496;-54
2021/06/28 00:02:58;;;;;;;14.50;12.00;;;;;;;;;;5093068;28;20463;-54
2021/06/28 00:05:26;;;;;;;16.47;12.17;;;;;;;;;;5093573;28;20647;-56
2021/06/28 00:07:55;;;;;;;17.70;12.30;;;;;;;;;;5092967;28;20466;-54
2021/06/28 00:10:23;;;;;;;19.10;12.60;;;;;;;;;;5093161;28;20452;-54
2021/06/28 00:12:51;;;;;;;19.73;12.70;;;;;;;;;;5093242;28;20455;-56
2021/06/28 00:15:21;;;;;;;13.53;11.20;;;;;;;;;;5092411;28;20534;-55
2021/06/28 00:17:49;;;;;;;15.60;13.57;;;;;;;;;;5092938;28;20467;-55
2021/06/28 00:20:17;;;;;;;16.00;13.10;;;;;;;;;;5092074;28;20498;-52
2021/06/28 00:22:46;;;;;;;14.57;13.07;;;;;;;;;;5092794;28;20455;-55
2021/06/28 00:25:16;;;;;;;20.43;15.03;;;;;;;;;;5093211;28;20456;-57
2021/06/28 00:27:44;;;;;;;14.57;11.77;;;;;;;;;;5093227;28;20487;-54
2021/06/28 00:30:22;;;;;;;19.87;14.90;;;;;;;;;;5092592;28;20468;-56
2021/06/28 00:32:50;;;;;;;21.10;18.33;;;;;;;;;;5090021;28;20503;-55
2021/06/28 00:35:18;;;;;;;24.00;17.43;;;;;;;;;;5091005;28;20509;-54
2021/06/28 00:37:51;;;;;;;20.37;15.60;;;;;;;;;;5092921;28;20468;-56
2021/06/28 00:40:21;;;;;;;25.67;17.67;;;;;;;;;;5092249;28;20502;-53
2021/06/28 00:42:48;;;;;;;24.23;19.20;;;;;;;;;;5093344;28;20437;-56
2021/06/28 00:45:20;;;;;;;20.40;17.87;;;;;;;;;;5093757;28;20456;-53
2021/06/28 00:47:47;;;;;;;19.97;14.90;;;;;;;;;;5093679;28;20456;-55
2021/06/28 00:50:15;;;;;;;15.47;13.83;;;;;;;;;;5094188;28;20474;-58
2021/06/28 00:52:43;;;;;;;15.33;12.73;;;;;;;;;;5092352;28;20463;-58
2021/06/28 00:55:11;;;;;;;17.43;15.57;;;;;;;;;;5091935;28;20470;-53
2021/06/28 00:57:44;;;;;;;17.67;13.27;;;;;;;;;;5091965;28;20436;-53
2021/06/28 01:00:13;;;;;;;23.27;17.90;;;;;;;;;;5091780;28;20535;-52
2021/06/28 01:02:41;;;;;;;16.63;13.43;;;;;;;;;;5091962;28;20466;-56
2021/06/28 01:05:09;;;;;;;31.60;24.67;;;;;;;;;;5092093;28;20495;-55
2021/06/28 01:07:37;;;;;;;22.37;19.57;;;;;;;;;;5091810;28;20460;-53
2021/06/28 01:10:08;;;;;;;21.70;16.23;;;;;;;;;;5091053;28;20436;-56
2021/06/28 01:12:36;;;;;;;25.73;17.97;;;;;;;;;;5091044;28;20460;-54
2021/06/28 01:15:06;;;;;;;25.77;21.00;;;;;;;;;;5091248;28;20463;-54
2021/06/28 01:17:36;;;;;;;28.47;22.37;;;;;;;;;;5091200;28;20456;-54
2021/06/28 01:20:06;;;;;;;17.80;14.03;;;;;;;;;;5091759;28;20474;-55
2021/06/28 01:22:34;;;;;;;19.23;15.53;;;;;;;;;;5091621;28;20539;-54
2021/06/28 01:25:33;;;;;;;19.60;15.03;;;;;;;;;;5091912;28;20432;-57
2021/06/28 01:28:01;;;;;;;15.73;13.70;;;;;;;;;;5091630;28;20471;-56
2021/06/28 01:30:30;;;;;;;16.60;13.03;;;;;;;;;;5092318;28;20429;-55
2021/06/28 01:33:00;;;;;;;14.93;12.27;;;;;;;;;;5090813;28;20483;-56
2021/06/28 01:35:28;;;;;;;59.40;50.20;;;;;;;;;;5090243;28;20452;-58
2021/06/28 01:37:57;;;;;;;30.53;24.73;;;;;;;;;;5091529;28;20468;-57
2021/06/28 01:40:24;;;;;;;41.60;31.93;;;;;;;;;;5091807;28;20594;-57
2021/06/28 01:42:51;;;;;;;50.70;38.10;;;;;;;;;;5091941;28;20443;-58
2021/06/28 01:45:27;;;;;;;63.03;44.43;;;;;;;;;;5092425;28;20452;-54
2021/06/28 01:47:56;;;;;;;28.63;21.40;;;;;;;;;;5091306;28;20455;-56
2021/06/28 01:50:25;;;;;;;39.37;26.47;;;;;;;;;;5092072;28;20448;-55
2021/06/28 01:52:57;;;;;;;21.10;16.90;;;;;;;;;;5092087;28;20456;-55
2021/06/28 01:55:25;;;;;;;16.93;14.57;;;;;;;;;;5091547;28;20459;-58
2021/06/28 01:57:53;;;;;;;25.90;18.60;;;;;;;;;;5091666;28;20455;-55
2021/06/28 02:00:24;;;;;;;22.80;16.10;;;;;;;;;;5091974;28;20479;-52
2021/06/28 02:03:05;;;;;;;23.53;15.50;;;;;;;;;;5091448;28;20482;-55
2021/06/28 02:05:54;;;;;;;19.67;15.73;;;;;;;;;;5091217;28;20464;-59
2021/06/28 02:08:23;;;;;;;30.63;27.47;;;;;;;;;;5091976;28;20474;-54
2021/06/28 02:10:51;;;;;;;38.10;26.50;;;;;;;;;;5091515;28;20463;-54
2021/06/28 02:13:29;;;;;;;37.13;28.17;;;;;;;;;;5090377;28;20458;-53
2021/06/28 02:15:56;;;;;;;24.87;18.03;;;;;;;;;;5092061;28;20460;-54
2021/06/28 02:18:26;;;;;;;27.30;16.53;;;;;;;;;;5092041;28;20506;-57
2021/06/28 02:21:12;;;;;;;17.30;14.57;;;;;;;;;;5093017;28;20554;-54
2021/06/28 02:23:39;;;;;;;17.10;14.30;;;;;;;;;;5074111;28;20468;-60
2021/06/28 02:26:07;;;;;;;25.83;19.90;;;;;;;;;;5073013;28;20581;-56
2021/06/28 02:28:47;;;;;;;16.93;12.40;;;;;;;;;;5072624;28;20449;-52
2021/06/28 02:31:17;;;;;;;17.43;12.50;;;;;;;;;;5071430;28;20456;-57
2021/06/28 02:33:46;;;;;;;18.87;14.77;;;;;;;;;;5071719;28;20484;-55
2021/06/28 02:36:16;;;;;;;14.70;12.33;;;;;;;;;;5078323;28;20459;-56
2021/06/28 02:38:43;;;;;;;17.10;13.97;;;;;;;;;;5091562;28;20478;-55
2021/06/28 02:41:11;;;;;;;15.33;13.70;;;;;;;;;;5092489;28;20492;-55
2021/06/28 02:43:44;;;;;;;14.57;12.70;;;;;;;;;;5092607;28;20440;-56
2021/06/28 02:46:13;;;;;;;16.20;14.07;;;;;;;;;;5093841;28;20495;-57
2021/06/28 02:48:41;;;;;;;17.50;13.40;;;;;;;;;;5083598;28;20436;-53
2021/06/28 02:51:28;;;;;;;15.00;12.77;;;;;;;;;;5093084;28;20460;-52
2021/06/28 02:53:56;;;;;;;17.93;13.13;;;;;;;;;;5093677;28;20455;-57
2021/06/28 02:56:23;;;;;;;16.30;13.70;;;;;;;;;;5092860;28;20523;-58
2021/06/28 02:58:59;;;;;;;15.23;12.57;;;;;;;;;;5091990;28;20474;-56
2021/06/28 03:01:28;;;;;;;15.50;12.53;;;;;;;;;;5095282;28;20483;-60
2021/06/28 03:03:55;;;;;;;25.87;13.60;;;;;;;;;;5096476;28;20436;-56
2021/06/28 03:06:31;;;;;;;14.97;11.90;;;;;;;;;;5097143;28;20456;-54
2021/06/28 03:08:58;;;;;;;13.60;11.50;;;;;;;;;;5097855;28;20451;-55
2021/06/28 03:11:25;;;;;;;14.70;12.73;;;;;;;;;;5096577;28;20472;-52
2021/06/28 03:14:15;;;;;;;14.57;12.50;;;;;;;;;;5096108;28;20526;-54
2021/06/28 03:16:42;;;;;;;16.80;11.60;;;;;;;;;;5094544;28;20562;-53
2021/06/28 03:19:09;;;;;;;14.80;12.17;;;;;;;;;;5095345;28;20478;-55
2021/06/28 03:21:54;;;;;;;15.83;12.23;;;;;;;;;;5094374;28;20771;-58
2021/06/28 03:24:24;;;;;;;14.20;11.43;;;;;;;;;;5095326;28;20456;-52
2021/06/28 03:26:52;;;;;;;13.17;10.73;;;;;;;;;;5095456;28;20615;-57
2021/06/28 03:29:47;;;;;;;15.57;12.00;;;;;;;;;;5096871;28;20448;-58
2021/06/28 03:32:21;;;;;;;16.10;13.07;;;;;;;;;;5098070;28;20466;-58
2021/06/28 03:37:40;;;;;;;14.43;11.33;;;;;;;;;;5097814;28;20448;-58
2021/06/28 03:40:12;;;;;;;16.83;11.67;;;;;;;;;;5097984;28;20456;-54
2021/06/28 03:42:45;;;;;;;14.73;11.80;;;;;;;;;;5097858;28;20496;-62
2021/06/28 03:45:14;;;;;;;14.73;11.50;;;;;;;;;;5096291;28;20513;-52
2021/06/28 03:47:42;;;;;;;13.07;11.30;;;;;;;;;;5095468;28;20481;-51
2021/06/28 03:50:37;;;;;;;13.97;10.93;;;;;;;;;;5095076;28;20464;-54
2021/06/28 03:53:05;;;;;;;14.23;10.63;;;;;;;;;;5095648;28;20466;-56
2021/06/28 03:55:33;;;;;;;16.27;10.63;;;;;;;;;;5095021;28;20471;-56
2021/06/28 03:58:10;;;;;;;18.03;12.20;;;;;;;;;;5095277;28;20464;-57
2021/06/28 04:00:45;;;;;;;15.20;11.70;;;;;;;;;;5092594;28;20563;-59
2021/06/28 04:03:12;;;;;;;17.03;11.33;;;;;;;;;;5093257;28;20550;-57
2021/06/28 04:05:40;;;;;;;13.40;11.60;;;;;;;;;;5093749;28;20460;-52
2021/06/28 04:08:08;;;;;;;15.90;11.97;;;;;;;;;;5094479;28;20904;-57
2021/06/28 04:11:07;;;;;;;14.23;11.70;;;;;;;;;;5094824;28;20486;-58
2021/06/28 04:13:34;;;;;;;14.17;11.30;;;;;;;;;;5075170;28;20487;-54
2021/06/28 04:16:05;;;;;;;18.47;10.90;;;;;;;;;;5075387;28;20481;-57
2021/06/28 04:18:48;;;;;;;18.83;13.00;;;;;;;;;;5088477;28;20487;-53
2021/06/28 04:21:15;;;;;;;16.93;11.43;;;;;;;;;;5094803;28;20460;-59
2021/06/28 04:23:46;;;;;;;12.77;11.30;;;;;;;;;;5094821;28;20788;-55
2021/06/28 04:26:28;;;;;;;15.50;11.47;;;;;;;;;;5097323;28;20427;-58
2021/06/28 04:28:55;;;;;;;13.93;11.20;;;;;;;;;;5096284;28;20472;-54
2021/06/28 04:31:22;;;;;;;11.60;9.83;;;;;;;;;;5096323;28;20478;-55
2021/06/28 04:33:57;;;;;;;15.57;11.00;;;;;;;;;;5096378;28;20468;-58
2021/06/28 04:36:29;;;;;;;17.07;11.33;;;;;;;;;;5095022;28;20491;-53
2021/06/28 04:38:59;;;;;;;13.47;10.30;;;;;;;;;;5096531;28;20467;-59
2021/06/28 04:41:38;;;;;;;15.23;11.47;;;;;;;;;;5097009;28;20519;-60
2021/06/28 04:44:06;;;;;;;17.37;11.80;;;;;;;;;;5097024;28;20442;-57
2021/06/28 04:46:35;;;;;;;23.53;12.60;;;;;;;;;;5096940;28;20454;-58
2021/06/28 04:49:18;;;;;;;11.47;10.10;;;;;;;;;;5097191;28;20466;-60
2021/06/28 04:51:45;;;;;;;10.60;8.70;;;;;;;;;;5096696;28;20452;-57
2021/06/28 04:54:14;;;;;;;14.77;10.20;;;;;;;;;;5096219;28;20517;-58
2021/06/28 04:57:16;;;;;;;13.43;9.93;;;;;;;;;;5096414;28;20482;-58
2021/06/28 04:59:44;;;;;;;13.80;10.60;;;;;;;;;;5096575;28;20479;-56
2021/06/28 05:02:11;;;;;;;16.23;10.80;;;;;;;;;;5097127;28;20543;-58
2021/06/28 05:07:43;;;;;;;11.07;9.03;;;;;;;;;;5094334;28;20455;-52
2021/06/28 05:10:17;;;;;;;12.13;9.37;;;;;;;;;;5096535;28;20456;-56
2021/06/28 05:15:48;;;;;;;10.23;9.07;;;;;;;;;;5094619;28;20502;-58
2021/06/28 05:18:16;;;;;;;11.90;9.17;;;;;;;;;;5095712;28;20452;-59
2021/06/28 05:20:50;;;;;;;11.33;9.07;;;;;;;;;;5095499;28;20456;-58
2021/06/28 05:23:19;;;;;;;15.10;9.50;;;;;;;;;;5095298;28;20476;-56
2021/06/28 05:25:53;;;;;;;14.20;8.87;;;;;;;;;;5096265;28;20493;-59
2021/06/28 05:28:32;;;;;;;13.10;9.97;;;;;;;;;;5095806;28;20436;-56
2021/06/28 05:31:01;;;;;;;11.73;8.97;;;;;;;;;;5110080;28;20439;-54
2021/06/28 05:33:29;;;;;;;15.67;11.70;;;;;;;;;;5099451;28;20447;-55
2021/06/28 05:36:30;;;;;;;12.13;10.13;;;;;;;;;;5095605;28;20506;-54
2021/06/28 05:38:57;;;;;;;12.70;9.87;;;;;;;;;;5093910;28;20484;-52
2021/06/28 05:41:33;;;;;;;12.70;9.57;;;;;;;;;;5095420;28;20486;-57
2021/06/28 05:44:10;;;;;;;14.37;10.90;;;;;;;;;;5095705;28;20448;-62
2021/06/28 05:46:39;;;;;;;12.30;9.40;;;;;;;;;;5087018;28;20484;-57
2021/06/28 05:49:09;;;;;;;11.37;10.00;;;;;;;;;;5095387;28;20463;-59
2021/06/28 05:51:39;;;;;;;10.93;9.80;;;;;;;;;;5091240;28;20488;-60
2021/06/28 05:54:10;;;;;;;24.30;10.60;;;;;;;;;;5075589;28;20459;-60
2021/06/28 05:56:39;;;;;;;12.90;10.47;;;;;;;;;;5079001;28;20514;-60
2021/06/28 05:59:08;;;;;;;10.17;9.07;;;;;;;;;;5095187;28;20444;-56
2021/06/28 06:01:36;;;;;;;10.50;9.37;;;;;;;;;;5094613;28;20544;-58
2021/06/28 06:04:07;;;;;;;16.10;10.30;;;;;;;;;;5095414;28;20483;-58
2021/06/28 06:06:51;;;;;;;17.60;10.73;;;;;;;;;;5095281;28;20458;-53
2021/06/28 06:09:37;;;;;;;21.23;9.50;;;;;;;;;;5094886;28;20464;-54
2021/06/28 06:12:12;;;;;;;10.20;9.00;;;;;;;;;;5094967;28;20469;-51
2021/06/28 06:14:40;;;;;;;11.30;9.40;;;;;;;;;;5088979;28;20479;-58
2021/06/28 06:17:08;;;;;;;15.13;9.57;;;;;;;;;;5116174;28;20453;-56
2021/06/28 06:19:35;;;;;;;11.67;8.67;;;;;;;;;;5115497;28;20529;-54
2021/06/28 06:22:28;;;;;;;11.80;9.97;;;;;;;;;;5115001;28;20481;-55
2021/06/28 06:24:56;;;;;;;13.70;10.23;;;;;;;;;;5115581;28;20448;-52
2021/06/28 06:27:27;;;;;;;14.73;10.33;;;;;;;;;;5115515;28;20472;-60
2021/06/28 06:29:57;;;;;;;12.13;9.90;;;;;;;;;;5100093;28;20446;-56
2021/06/28 06:32:25;;;;;;;11.63;10.07;;;;;;;;;;5095553;28;20459;-54
2021/06/28 06:34:56;;;;;;;12.30;9.97;;;;;;;;;;5099003;28;20539;-56
2021/06/28 06:40:29;;;;;;;11.10;9.90;;;;;;;;;;5108846;28;20643;-57
2021/06/28 06:42:58;;;;;;;11.40;10.20;;;;;;;;;;5120182;28;20508;-56
2021/06/28 06:45:25;;;;;;;13.73;9.97;;;;;;;;;;5119462;28;20456;-53
2021/06/28 06:47:53;;;;;;;17.50;10.50;;;;;;;;;;5108653;28;20492;-54
2021/06/28 06:50:46;;;;;;;12.67;10.80;;;;;;;;;;5098187;28;20507;-53
2021/06/28 06:53:15;;;;;;;15.67;10.50;;;;;;;;;;5097999;28;20457;-56
2021/06/28 06:55:42;;;;;;;14.93;10.70;;;;;;;;;;5098496;28;20463;-55
2021/06/28 06:58:11;;;;;;;17.37;11.00;;;;;;;;;;5109869;28;20520;-57
2021/06/28 07:00:39;;;;;;;12.30;9.80;;;;;;;;;;5118633;28;20456;-55
2021/06/28 07:03:06;;;;;;;12.80;10.20;;;;;;;;;;5117747;28;20495;-56
2021/06/28 07:05:44;;;;;;;12.70;9.27;;;;;;;;;;5118686;28;20428;-58
2021/06/28 07:08:15;;;;;;;13.20;9.17;;;;;;;;;;5118094;28;20469;-57
2021/06/28 07:10:43;;;;;;;11.20;10.00;;;;;;;;;;5118090;28;20434;-55
2021/06/28 07:13:11;;;;;;;15.77;9.70;;;;;;;;;;5117746;28;20456;-49
2021/06/28 07:15:39;;;;;;;13.70;9.57;;;;;;;;;;5117556;28;20478;-57
2021/06/28 07:18:07;;;;;;;11.63;9.37;;;;;;;;;;5117499;28;20429;-59
2021/06/28 07:20:34;;;;;;;10.20;9.20;;;;;;;;;;5116875;28;20454;-58
2021/06/28 07:23:05;;;;;;;11.40;9.40;;;;;;;;;;5117964;28;20482;-54
2021/06/28 07:25:53;;;;;;;11.27;9.07;;;;;;;;;;5118375;28;20445;-59
2021/06/28 07:28:29;;;;;;;12.80;11.50;;;;;;;;;;5117526;28;20455;-52
2021/06/28 07:31:02;;;;;;;10.00;9.00;;;;;;;;;;5117598;28;20465;-57
2021/06/28 07:33:31;;;;;;;10.80;9.67;;;;;;;;;;5118062;28;20636;-55
2021/06/28 07:35:59;;;;;;;12.60;11.30;;;;;;;;;;5101414;28;20436;-57
2021/06/28 07:38:34;;;;;;;11.10;9.10;;;;;;;;;;5117896;28;20451;-58
2021/06/28 07:41:27;;;;;;;11.50;9.13;;;;;;;;;;5117999;28;20482;-56
2021/06/28 07:46:59;;;;;;;15.10;9.70;;;;;;;;;;5097059;28;20514;-56
2021/06/28 07:49:27;;;;;;;13.77;9.87;;;;;;;;;;5096510;28;20471;-62
2021/06/28 07:52:34;;;;;;;12.73;9.40;;;;;;;;;;5096346;28;20458;-55
2021/06/28 07:55:14;;;;;;;12.67;9.13;;;;;;;;;;5097180;28;20499;-57
2021/06/28 07:57:42;;;;;;;11.77;8.63;;;;;;;;;;5112205;28;20449;-56
2021/06/28 08:00:11;;;;;;;9.13;8.23;;;;;;;;;;5102005;28;20502;-54
2021/06/28 08:02:41;;;;;;;11.10;8.73;;;;;;;;;;5096040;28;20482;-55
2021/06/28 08:05:10;;;;;;;11.13;10.00;;;;;;;;;;5096376;28;20438;-57
2021/06/28 08:07:37;;;;;;;17.30;15.57;;;;;;;;;;5096786;28;20445;-55
2021/06/28 08:10:05;;;;;;;16.53;12.67;;;;;;;;;;5096610;28;20452;-60
2021/06/28 08:15:36;;;;;;;9.97;8.87;;;;;;;;;;5096930;28;20429;-58
2021/06/28 08:18:29;;;;;;;12.43;9.10;;;;;;;;;;5097201;28;20470;-59
2021/06/28 08:21:06;;;;;;;10.30;8.37;;;;;;;;;;5096470;28;20456;-51
2021/06/28 08:24:16;;;;;;;11.10;9.93;;;;;;;;;;5097459;28;20475;-53
2021/06/28 08:26:44;;;;;;;10.53;8.90;;;;;;;;;;5096820;28;20459;-53
2021/06/28 08:29:12;;;;;;;14.23;8.87;;;;;;;;;;5096168;28;20428;-59
2021/06/28 08:31:41;;;;;;;10.43;8.60;;;;;;;;;;5099959;28;20765;-56
2021/06/28 08:34:10;;;;;;;10.50;8.70;;;;;;;;;;5116614;28;20478;-56
2021/06/28 08:36:40;;;;;;;11.40;9.10;;;;;;;;;;5116522;28;20435;-49
2021/06/28 08:39:08;;;;;;;10.07;8.87;;;;;;;;;;5116652;28;20439;-55
2021/06/28 08:41:43;;;;;;;11.00;8.90;;;;;;;;;;5116800;28;20542;-59
2021/06/28 08:44:12;;;;;;;10.43;8.73;;;;;;;;;;5113405;28;20502;-59
2021/06/28 08:46:39;;;;;;;15.03;9.17;;;;;;;;;;5115623;28;20463;-56
2021/06/28 08:49:07;;;;;;;13.73;9.10;;;;;;;;;;5115628;28;20459;-58
2021/06/28 08:51:36;;;;;;;12.13;9.10;;;;;;;;;;5115716;28;20530;-61
2021/06/28 08:54:09;;;;;;;8.87;7.67;;;;;;;;;;5116111;28;20454;-54
2021/06/28 08:56:36;;;;;;;8.70;7.80;;;;;;;;;;5114928;28;20469;-59
2021/06/28 08:59:04;;;;;;;9.20;8.30;;;;;;;;;;5115793;28;20474;-56
2021/06/28 09:01:35;;;;;;;9.13;7.10;;;;;;;;;;5112588;28;20509;-60
2021/06/28 09:04:09;;;;;;;11.20;7.80;;;;;;;;;;5102008;28;20553;-59
2021/06/28 09:06:37;;;;;;;11.83;7.67;;;;;;;;;;5111619;28;20483;-55
2021/06/28 09:09:28;;;;;;;14.70;9.37;;;;;;;;;;5113755;28;21032;-53
2021/06/28 09:11:55;;;;;;;6.93;6.23;;;;;;;;;;5104900;28;20476;-55
2021/06/28 09:14:24;;;;;;;12.37;8.50;;;;;;;;;;5094819;28;20452;-55
2021/06/28 09:16:53;;;;;;;14.50;12.60;;;;;;;;;;5094045;28;20448;-56
2021/06/28 09:19:22;;;;;;;11.13;10.00;;;;;;;;;;5094398;28;20440;-56
2021/06/28 09:21:52;;;;;;;7.83;6.90;;;;;;;;;;5094852;28;20432;-50
2021/06/28 09:27:35;;;;;;;8.03;7.20;;;;;;;;;;5094517;28;20426;-57
2021/06/28 09:30:19;;;;;;;7.63;6.63;;;;;;;;;;5094073;28;20452;-56
2021/06/28 09:32:55;;;;;;;8.60;7.63;;;;;;;;;;5094021;28;20604;-57
2021/06/28 09:35:30;;;;;;;6.60;5.93;;;;;;;;;;5078424;28;20505;-56
2021/06/28 09:37:59;;;;;;;6.80;6.10;;;;;;;;;;5086870;28;20501;-59
2021/06/28 09:40:49;;;;;;;6.60;5.90;;;;;;;;;;5087186;28;20458;-58
2021/06/28 09:43:25;;;;;;;7.03;5.87;;;;;;;;;;5079925;28;21271;-60
2021/06/28 09:45:55;;;;;;;7.17;5.73;;;;;;;;;;5077907;28;20445;-57
2021/06/28 09:48:24;;;;;;;7.17;6.03;;;;;;;;;;5094728;28;20498;-59
2021/06/28 09:50:53;;;;;;;7.27;6.03;;;;;;;;;;5094793;28;20470;-53
2021/06/28 09:53:27;;;;;;;7.10;6.40;;;;;;;;;;5094339;28;20495;-56
2021/06/28 09:55:55;;;;;;;7.97;7.17;;;;;;;;;;5093831;28;20439;-60
2021/06/28 09:58:24;;;;;;;8.50;7.30;;;;;;;;;;5093565;28;20804;-54
2021/06/28 10:01:00;;;;;;;9.97;7.20;;;;;;;;;;5094555;28;20484;-59
2021/06/28 10:03:33;;;;;;;7.23;6.53;;;;;;;;;;5093361;28;20471;-61
2021/06/28 10:06:08;;;;;;;8.07;6.87;;;;;;;;;;5093041;28;20483;-57
2021/06/28 10:08:45;;;;;;;8.83;5.30;;;;;;;;;;5096922;28;20436;-61
2021/06/28 10:11:17;;;;;;;9.30;7.10;;;;;;;;;;5099882;28;20455;-61
2021/06/28 10:14:01;;;;;;;8.23;6.90;;;;;;;;;;5100603;28;20440;-55
2021/06/28 10:16:29;;;;;;;10.33;8.17;;;;;;;;;;5096496;28;20481;-56
2021/06/28 10:18:59;;;;;;;9.53;8.53;;;;;;;;;;5100269;28;20474;-60
2021/06/28 10:21:29;;;;;;;9.57;8.57;;;;;;;;;;5100845;28;20443;-57
2021/06/28 10:23:57;;;;;;;9.40;8.03;;;;;;;;;;5100867;28;20498;-61
2021/06/28 10:26:25;;;;;;;8.40;7.50;;;;;;;;;;5097518;28;20498;-59
2021/06/28 10:29:05;;;;;;;8.33;7.17;;;;;;;;;;5085078;28;20457;-59
2021/06/28 10:31:35;;;;;;;10.13;7.03;;;;;;;;;;5082602;28;20508;-57
2021/06/28 10:34:03;;;;;;;9.97;7.73;;;;;;;;;;5092423;28;20441;-60
2021/06/28 10:36:38;;;;;;;11.60;8.00;;;;;;;;;;5096842;28;20472;-58
2021/06/28 10:39:07;;;;;;;9.23;6.60;;;;;;;;;;5097481;28;20473;-56
2021/06/28 10:41:35;;;;;;;8.37;7.57;;;;;;;;;;5097138;28;20510;-57
2021/06/28 10:44:14;;;;;;;8.57;7.67;;;;;;;;;;5098007;28;20468;-55
2021/06/28 10:46:43;;;;;;;12.77;8.70;;;;;;;;;;5097419;28;20448;-57
2021/06/28 10:49:16;;;;;;;8.73;7.93;;;;;;;;;;5099437;28;20447;-58
2021/06/28 10:51:48;;;;;;;8.43;7.57;;;;;;;;;;5093513;28;20449;-61
2021/06/28 10:54:17;;;;;;;8.57;7.67;;;;;;;;;;5094266;28;20596;-58
2021/06/28 10:56:55;;;;;;;7.67;6.40;;;;;;;;;;5098567;28;20454;-60
2021/06/28 10:59:24;;;;;;;9.67;7.30;;;;;;;;;;5099646;28;20448;-59
2021/06/28 11:01:59;;;;;;;8.20;7.40;;;;;;;;;;5098526;28;20471;-53
2021/06/28 11:05:01;;;;;;;11.00;8.73;;;;;;;;;;5092423;28;20506;-56
2021/06/28 11:07:45;;;;;;;7.10;4.70;;;;;;;;;;5094412;28;20464;-58
2021/06/28 11:10:39;;;;;;;6.60;4.00;;;;;;;;;;5096956;28;20459;-53
2021/06/28 11:13:21;;;;;;;6.70;3.90;;;;;;;;;;5098813;28;20503;-59
2021/06/28 11:16:28;;;;;;;7.90;4.07;;;;;;;;;;5118478;28;20469;-55
2021/06/28 11:19:02;;;;;;;8.40;5.10;;;;;;;;;;5111111;28;20448;-59
2021/06/28 11:22:12;;;;;;;9.47;4.40;;;;;;;;;;5094651;28;20463;-56
2021/06/28 11:24:39;;;;;;;6.57;5.27;;;;;;;;;;5096140;28;20484;-56
2021/06/28 11:27:19;;;;;;;5.93;4.07;;;;;;;;;;5096605;28;20448;-56
2021/06/28 11:30:10;;;;;;;6.97;4.90;;;;;;;;;;5091718;28;20529;-59
2021/06/28 11:32:40;;;;;;;7.33;6.40;;;;;;;;;;5107953;28;20503;-54
2021/06/28 11:35:07;;;;;;;7.43;5.93;;;;;;;;;;5115250;28;20462;-61
2021/06/28 11:37:55;;;;;;;8.53;6.97;;;;;;;;;;5115209;28;20477;-58
2021/06/28 11:40:37;;;;;;;9.50;7.83;;;;;;;;;;5116110;28;20471;-58
2021/06/28 11:43:31;;;;;;;10.13;8.10;;;;;;;;;;5114874;28;20439;-58
2021/06/28 11:45:59;;;;;;;9.13;7.23;;;;;;;;;;5095801;28;20444;-61
2021/06/28 11:48:36;;;;;;;9.17;8.17;;;;;;;;;;5096411;28;20440;-60
2021/06/28 11:51:12;;;;;;;8.10;7.03;;;;;;;;;;5095787;28;20500;-60
2021/06/28 11:53:42;;;;;;;8.77;7.87;;;;;;;;;;5112868;28;20500;-60
2021/06/28 11:56:20;;;;;;;6.47;5.77;;;;;;;;;;5117632;28;20447;-61
2021/06/28 11:59:05;;;;;;;7.60;6.50;;;;;;;;;;5100547;28;20490;-60
2021/06/28 12:01:34;;;;;;;9.87;6.60;;;;;;;;;;5096083;28;20463;-60
2021/06/28 12:04:05;;;;;;;7.87;6.90;;;;;;;;;;5096233;28;20476;-58
2021/06/28 12:06:33;;;;;;;14.10;8.60;;;;;;;;;;5096952;28;20455;-57
2021/06/28 12:09:19;;;;;;;21.73;17.93;;;;;;;;;;5096150;28;20451;-61
2021/06/28 12:12:04;;;;;;;8.93;6.60;;;;;;;;;;5096183;28;20607;-59
2021/06/28 12:14:38;;;;;;;8.70;7.40;;;;;;;;;;5093047;28;20460;-58
2021/06/28 12:17:20;;;;;;;9.40;7.53;;;;;;;;;;5096067;28;20460;-55
2021/06/28 12:19:51;;;;;;;8.13;7.07;;;;;;;;;;5093122;28;20513;-55
2021/06/28 12:22:20;;;;;;;7.33;6.63;;;;;;;;;;5095540;28;20447;-52
2021/06/28 12:24:48;;;;;;;7.80;6.70;;;;;;;;;;5095874;28;20496;-61
2021/06/28 12:27:16;;;;;;;11.43;7.80;;;;;;;;;;5094218;28;20433;-59
2021/06/28 12:32:34;;;;;;;12.23;9.03;;;;;;;;;;5094534;28;20491;-54
2021/06/28 12:35:04;;;;;;;8.50;7.63;;;;;;;;;;5115230;28;20499;-59
2021/06/28 12:37:33;;;;;;;12.03;8.50;;;;;;;;;;5116065;28;20450;-60
2021/06/28 12:40:18;;;;;;;13.53;8.70;;;;;;;;;;5115691;28;20451;-58
2021/06/28 12:42:49;;;;;;;14.33;8.10;;;;;;;;;;5115976;28;20462;-54
2021/06/28 12:45:17;;;;;;;10.10;7.97;;;;;;;;;;5115593;28;20490;-58
2021/06/28 12:48:20;;;;;;;8.10;6.77;;;;;;;;;;5115683;28;20467;-59
2021/06/28 12:50:54;;;;;;;9.57;7.20;;;;;;;;;;5098800;28;20475;-57
2021/06/28 12:53:28;;;;;;;10.50;8.50;;;;;;;;;;5095194;28;20456;-60
2021/06/28 12:56:11;;;;;;;12.20;8.13;;;;;;;;;;5095350;28;20464;-52
2021/06/28 12:58:45;;;;;;;15.67;10.00;;;;;;;;;;5106636;28;20502;-54
2021/06/28 13:01:13;;;;;;;16.07;8.53;;;;;;;;;;5114819;28;20458;-58
2021/06/28 13:03:42;;;;;;;12.53;8.77;;;;;;;;;;5115344;28;20497;-50
2021/06/28 13:06:29;;;;;;;9.70;7.50;;;;;;;;;;5115022;28;20478;-55
2021/06/28 13:09:12;;;;;;;6.77;6.07;;;;;;;;;;5113763;28;20466;-57
2021/06/28 13:11:48;;;;;;;8.90;7.27;;;;;;;;;;5115129;28;20462;-58
2021/06/28 13:14:25;;;;;;;8.63;6.07;;;;;;;;;;5114867;28;20518;-59
2021/06/28 13:17:04;;;;;;;6.50;5.67;;;;;;;;;;5114671;28;20450;-58
2021/06/28 13:26:07;;;;;;;8.43;7.40;;;;;;;;;;5115179;28;20509;-57
2021/06/28 13:28:36;;;;;;;7.73;5.13;;;;;;;;;;5115497;28;20451;-54
2021/06/28 13:31:04;;;;;;;6.90;4.93;;;;;;;;;;5115578;28;20439;-57
2021/06/28 13:33:59;;;;;;;6.63;5.70;;;;;;;;;;5115702;28;20443;-56
2021/06/28 13:36:31;;;;;;;8.47;5.73;;;;;;;;;;5115126;28;20439;-59
2021/06/28 13:38:59;;;;;;;10.73;6.50;;;;;;;;;;5114078;28;20511;-59
2021/06/28 13:41:43;;;;;;;6.07;5.10;;;;;;;;;;5115219;28;20572;-60
2021/06/28 13:44:17;;;;;;;13.67;5.30;;;;;;;;;;5112458;28;20668;-57
2021/06/28 13:46:54;;;;;;;6.57;5.60;;;;;;;;;;5114113;28;20447;-57
2021/06/28 13:49:26;;;;;;;7.93;6.47;;;;;;;;;;5114530;28;20499;-58
2021/06/28 13:54:40;;;;;;;9.77;8.23;;;;;;;;;;5059219;28;20525;-51
2021/06/28 14:00:19;;;;;;;8.03;6.40;;;;;;;;;;5071554;28;20469;-55
2021/06/28 14:02:52;;;;;;;11.73;4.53;;;;;;;;;;5063879;28;20446;-57
2021/06/28 14:05:20;;;;;;;6.57;5.43;;;;;;;;;;5065562;28;20552;-57
2021/06/28 14:07:52;;;;;;;6.00;5.10;;;;;;;;;;5071647;28;20460;-56
2021/06/28 14:10:19;;;;;;;10.30;7.50;;;;;;;;;;5071468;28;20441;-55
2021/06/28 14:12:47;;;;;;;7.63;5.30;;;;;;;;;;5069593;28;20461;-56
2021/06/28 14:15:16;;;;;;;5.33;4.50;;;;;;;;;;5070509;28;20461;-51
2021/06/28 14:17:46;;;;;;;5.60;4.87;;;;;;;;;;5068932;28;20445;-59
2021/06/28 14:20:14;;;;;;;6.83;4.83;;;;;;;;;;5071350;28;20457;-54
2021/06/28 14:22:42;;;;;;;6.03;4.60;;;;;;;;;;5071254;28;20441;-54
2021/06/28 14:28:23;;;;;;;7.60;5.10;;;;;;;;;;5084751;28;20543;-56
2021/06/28 14:30:52;;;;;;;9.17;5.37;;;;;;;;;;5093625;28;20525;-58
2021/06/28 14:33:19;;;;;;;7.03;5.70;;;;;;;;;;5093170;28;20444;-55
2021/06/28 14:35:46;;;;;;;6.63;3.93;;;;;;;;;;5092639;28;20440;-54
2021/06/28 14:38:34;;;;;;;4.33;3.20;;;;;;;;;;5092869;28;20432;-54
2021/06/28 14:41:01;;;;;;;6.40;3.23;;;;;;;;;;5093540;28;20463;-54
2021/06/28 14:43:32;;;;;;;5.57;3.50;;;;;;;;;;5093342;28;20452;-55
2021/06/28 14:46:19;;;;;;;9.73;4.47;;;;;;;;;;5092664;28;20546;-55
2021/06/28 14:48:46;;;;;;;5.20;4.37;;;;;;;;;;5093000;28;20462;-58
2021/06/28 14:51:13;;;;;;;4.90;3.43;;;;;;;;;;5093961;28;20458;-59
2021/06/28 14:54:09;;;;;;;4.57;4.10;;;;;;;;;;5093095;28;20467;-53
2021/06/28 14:56:36;;;;;;;5.10;4.17;;;;;;;;;;5107481;28;20475;-59
2021/06/28 14:59:03;;;;;;;7.50;5.37;;;;;;;;;;5117071;28;20990;-55
2021/06/28 15:01:32;;;;;;;7.13;4.30;;;;;;;;;;5116432;28;20462;-56
2021/06/28 15:04:00;;;;;;;5.23;3.37;;;;;;;;;;5116423;28;20455;-58
2021/06/28 15:06:35;;;;;;;5.80;5.30;;;;;;;;;;5116627;28;20479;-60
2021/06/28 15:09:03;;;;;;;4.77;3.00;;;;;;;;;;5116813;28;20523;-59
2021/06/28 15:11:31;;;;;;;7.80;3.47;;;;;;;;;;5117258;28;20517;-59
2021/06/28 15:14:24;;;;;;;5.53;2.70;;;;;;;;;;5117100;28;20447;-60
2021/06/28 15:17:22;;;;;;;3.30;2.30;;;;;;;;;;5101816;28;20483;-60
2021/06/28 15:20:08;;;;;;;3.87;2.40;;;;;;;;;;5081826;28;20471;-58
2021/06/28 15:22:36;;;;;;;3.00;2.17;;;;;;;;;;5084406;28;20495;-60
2021/06/28 15:25:27;;;;;;;6.70;2.93;;;;;;;;;;5087207;28;20487;-59
2021/06/28 15:27:55;;;;;;;4.67;2.93;;;;;;;;;;5091382;28;20514;-54
2021/06/28 15:30:24;;;;;;;3.50;2.50;;;;;;;;;;5096817;28;20480;-53
2021/06/28 15:33:03;;;;;;;5.60;2.33;;;;;;;;;;5092298;28;20428;-59
2021/06/28 15:35:30;;;;;;;4.47;2.70;;;;;;;;;;5085113;28;20449;-54
2021/06/28 15:37:57;;;;;;;4.37;3.43;;;;;;;;;;5080702;28;20585;-59
2021/06/28 15:40:26;;;;;;;4.37;2.70;;;;;;;;;;5095082;28;20502;-58
2021/06/28 15:42:55;;;;;;;5.77;3.17;;;;;;;;;;5092885;28;20585;-55